Time;durP1;ratioP1;P1;durP2;ratioP2;P2;SDS_P1;SDS_P2;PMS_P1;PMS_P2;Temp;Humidity;BMP_temperature;BMP_pressure;BME280_temperature;BME280_humidity;BME280_pressure;Samples;Min_cycle;Max_cycle;Signal;HPM_P1;HPM_P2
2023/01/03 00:01:39;;;;;;;4.00;1.93;;;;;;;19.36;57.06;101481.78;5112802;28;20416;-62
2023/01/03 00:04:05;;;;;;;3.67;1.73;;;;;;;19.40;56.73;101497.03;5081293;28;20503;-62
2023/01/03 00:06:32;;;;;;;4.40;1.90;;;;;;;19.38;56.73;101481.41;5078287;28;20661;-63
2023/01/03 00:08:58;;;;;;;3.87;1.97;;;;;;;19.36;56.71;101493.22;5087061;28;20195;-62
2023/01/03 00:14:10;;;;;;;5.20;1.77;;;;;;;19.37;56.75;101486.28;5055993;28;20408;-63
2023/01/03 00:16:36;;;;;;;3.63;1.90;;;;;;;19.37;56.84;101491.22;5089868;28;20493;-62
2023/01/03 00:19:08;;;;;;;3.90;1.50;;;;;;;19.37;56.78;101485.47;5073185;28;20478;-62
2023/01/03 00:21:34;;;;;;;3.10;1.40;;;;;;;19.36;56.75;101496.09;5082120;28;20178;-62
2023/01/03 00:23:59;;;;;;;4.50;2.00;;;;;;;19.36;56.96;101496.09;5071709;28;20505;-62
2023/01/03 00:26:25;;;;;;;4.50;2.17;;;;;;;19.35;57.00;101494.41;5072921;28;20174;-63
2023/01/03 00:28:50;;;;;;;3.23;1.77;;;;;;;19.37;56.84;101492.03;5053587;28;20213;-63
2023/01/03 00:31:16;;;;;;;2.73;1.50;;;;;;;19.36;56.88;101493.22;5086949;28;20550;-63
2023/01/03 00:33:41;;;;;;;3.13;1.60;;;;;;;19.37;56.79;101492.03;5087759;28;20179;-62
2023/01/03 00:36:07;;;;;;;2.43;1.33;;;;;;;19.37;56.73;101496.94;5074368;28;20194;-63
2023/01/03 00:38:33;;;;;;;4.13;1.77;;;;;;;19.38;56.66;101488.00;5088849;28;20170;-62
2023/01/03 00:41:10;;;;;;;3.20;1.70;;;;;;;19.35;56.71;101482.97;5091707;28;20425;-62
2023/01/03 00:43:36;;;;;;;2.43;1.60;;;;;;;19.37;56.74;101488.34;5091881;28;20330;-62
2023/01/03 00:46:01;;;;;;;3.73;1.73;;;;;;;19.38;56.74;101476.53;5077795;28;20437;-62
2023/01/03 00:48:27;;;;;;;3.50;1.77;;;;;;;19.36;56.78;101476.03;5092638;28;20206;-62
2023/01/03 00:50:52;;;;;;;5.80;1.80;;;;;;;19.38;56.63;101476.53;5101278;28;20545;-63
2023/01/03 00:53:18;;;;;;;4.73;1.53;;;;;;;19.36;56.65;101484.63;5091393;28;20166;-62
2023/01/03 00:55:44;;;;;;;2.50;1.40;;;;;;;19.37;56.88;101477.69;5091445;28;20283;-62
2023/01/03 00:58:09;;;;;;;3.20;1.80;;;;;;;19.39;56.78;101483.94;5076275;28;20179;-62
2023/01/03 01:00:35;;;;;;;2.40;1.27;;;;;;;19.35;56.75;101493.56;5071036;28;20170;-63
2023/01/03 01:03:00;;;;;;;4.10;1.67;;;;;;;19.38;56.83;101492.88;5073808;28;20171;-61
2023/01/03 01:05:27;;;;;;;4.50;1.70;;;;;;;19.36;56.68;101486.69;5072158;28;20195;-62
2023/01/03 01:07:53;;;;;;;5.03;1.97;;;;;;;19.33;56.57;101490.25;5090221;28;20202;-62
2023/01/03 01:10:19;;;;;;;3.47;1.87;;;;;;;19.36;56.88;101489.53;5091312;28;20423;-62
2023/01/03 01:12:45;;;;;;;2.63;1.53;;;;;;;19.36;56.63;101481.78;5091486;28;20185;-62
2023/01/03 01:15:11;;;;;;;3.10;1.50;;;;;;;19.35;56.69;101493.56;5085653;28;20464;-62
2023/01/03 01:17:37;;;;;;;4.27;1.67;;;;;;;19.35;56.78;101494.41;5053138;28;20393;-62
2023/01/03 01:20:02;;;;;;;4.37;1.80;;;;;;;19.35;56.69;101505.88;5094659;28;20609;-62
2023/01/03 01:22:28;;;;;;;3.17;1.30;;;;;;;19.36;56.65;101501.81;5087866;28;20512;-62
2023/01/03 01:24:53;;;;;;;4.20;1.87;;;;;;;19.34;56.68;101503.38;5090983;28;20170;-62
2023/01/03 01:27:19;;;;;;;3.10;1.50;;;;;;;19.35;56.67;101510.75;5082246;28;20202;-62
2023/01/03 01:29:44;;;;;;;2.23;1.30;;;;;;;19.33;56.64;101504.56;5070890;28;20170;-62
2023/01/03 01:32:09;;;;;;;3.63;1.70;;;;;;;19.36;56.71;101503.84;5071092;28;20182;-61
2023/01/03 01:34:35;;;;;;;2.83;1.60;;;;;;;19.36;56.61;101506.72;5073054;28;20189;-62
2023/01/03 01:37:00;;;;;;;7.27;1.40;;;;;;;19.36;56.70;101507.53;5081167;28;20182;-62
2023/01/03 01:39:26;;;;;;;4.37;1.83;;;;;;;19.33;56.61;101502.53;5082313;28;20631;-62
2023/01/03 01:44:48;;;;;;;3.70;1.50;;;;;;;19.34;56.64;101514.81;5070335;28;20435;-62
2023/01/03 01:47:26;;;;;;;3.93;1.67;;;;;;;19.33;56.61;101516.88;5070314;28;20455;-62
2023/01/03 01:50:12;;;;;;;3.90;1.60;;;;;;;19.32;56.66;101514.34;5070848;28;20950;-62
2023/01/03 01:52:41;;;;;;;5.30;1.93;;;;;;;19.31;56.85;101516.38;5072735;28;20432;-62
2023/01/03 01:55:11;;;;;;;5.50;1.63;;;;;;;19.31;56.69;101530.69;5053007;28;20417;-62
2023/01/03 01:57:37;;;;;;;3.27;1.50;;;;;;;19.32;56.91;101532.34;5079950;28;20435;-62
2023/01/03 02:00:37;;;;;;;3.17;1.60;;;;;;;19.31;56.79;101524.13;5090703;28;20412;-62
2023/01/03 02:03:03;;;;;;;2.53;1.30;;;;;;;19.31;56.75;101524.13;5085364;28;20211;-63
2023/01/03 02:05:28;;;;;;;3.70;1.60;;;;;;;19.31;56.68;101532.72;5111162;28;20444;-63
2023/01/03 02:07:53;;;;;;;3.70;1.80;;;;;;;19.31;57.01;101524.13;5074825;28;20194;-63
2023/01/03 02:10:24;;;;;;;2.87;1.40;;;;;;;19.30;56.82;101526.16;5089255;28;20184;-63
2023/01/03 02:13:07;;;;;;;3.20;1.70;;;;;;;19.31;56.74;101521.28;5068345;28;20184;-63
2023/01/03 02:15:54;;;;;;;2.40;1.47;;;;;;;19.30;56.70;101516.72;5090843;28;20903;-63
2023/01/03 02:18:30;;;;;;;4.07;1.30;;;;;;;19.29;56.89;101515.91;5070000;28;20971;-63
2023/01/03 02:21:41;;;;;;;2.53;1.50;;;;;;;19.29;56.69;101524.50;5090934;28;20447;-63
2023/01/03 02:24:17;;;;;;;2.37;1.23;;;;;;;19.29;57.05;101527.34;5097155;28;20924;-63
2023/01/03 02:27:13;;;;;;;2.30;1.20;;;;;;;19.26;56.76;101522.31;5111476;28;20418;-63
2023/01/03 02:29:39;;;;;;;3.57;1.57;;;;;;;19.27;56.59;101517.44;5095353;28;20422;-63
2023/01/03 02:32:28;;;;;;;3.20;1.57;;;;;;;19.28;56.61;101522.81;5101399;28;20421;-63
2023/01/03 02:35:03;;;;;;;2.13;1.33;;;;;;;19.28;56.70;101522.81;5053301;28;20252;-63
2023/01/03 02:37:42;;;;;;;3.33;1.20;;;;;;;19.28;56.80;101521.97;5047511;28;20522;-63
2023/01/03 02:40:13;;;;;;;2.67;1.63;;;;;;;19.25;56.87;101517.78;5083566;28;20435;-63
2023/01/03 02:43:05;;;;;;;4.07;1.37;;;;;;;19.29;56.51;101517.91;5056880;28;20472;-63
2023/01/03 02:45:39;;;;;;;3.77;1.50;;;;;;;19.28;56.72;101528.56;5000879;28;20425;-63
2023/01/03 02:48:19;;;;;;;5.20;1.60;;;;;;;19.29;56.58;101520.78;4962228;28;20997;-63
2023/01/03 02:50:47;;;;;;;2.87;1.40;;;;;;;19.26;56.69;101516.59;4952860;28;20886;-63
2023/01/03 02:53:15;;;;;;;2.70;1.40;;;;;;;19.27;56.78;101520.31;4952323;29;20490;-63
2023/01/03 02:55:40;;;;;;;3.63;1.53;;;;;;;19.26;56.32;101522.31;5018309;28;20978;-63
2023/01/03 02:58:17;;;;;;;3.47;1.53;;;;;;;19.27;56.81;101514.59;5020855;28;20419;-64
2023/01/03 03:00:47;;;;;;;3.10;1.63;;;;;;;19.26;56.87;101521.50;5002554;28;20163;-63
2023/01/03 03:03:14;;;;;;;3.90;1.53;;;;;;;19.24;56.64;101521.84;5033753;28;20437;-63
2023/01/03 03:05:49;;;;;;;3.03;1.53;;;;;;;19.25;56.58;101523.53;4973603;28;20811;-63
2023/01/03 03:08:14;;;;;;;2.50;1.20;;;;;;;19.26;56.77;101518.66;5020478;28;20980;-64
2023/01/03 03:13:29;;;;;;;3.80;1.60;;;;;;;19.23;56.70;101514.47;5008468;28;20174;-64
2023/01/03 03:16:02;;;;;;;2.70;1.20;;;;;;;19.23;56.86;101516.47;4952633;28;20457;-64
2023/01/03 03:18:43;;;;;;;3.20;1.30;;;;;;;19.22;56.81;101512.78;4954379;28;20442;-64
2023/01/03 03:26:44;;;;;;;3.13;1.37;;;;;;;19.25;56.50;101511.22;4983400;28;20989;-64
2023/01/03 03:29:14;;;;;;;3.80;1.40;;;;;;;19.21;56.58;101505.34;5043121;28;20453;-64
2023/01/03 03:31:44;;;;;;;2.53;1.40;;;;;;;19.19;56.78;101519.19;5019141;28;20313;-64
2023/01/03 03:34:30;;;;;;;2.77;1.40;;;;;;;19.19;56.62;101507.75;5020586;28;20431;-64
2023/01/03 03:37:03;;;;;;;5.27;1.70;;;;;;;19.22;56.67;101512.78;5026160;28;20996;-64
2023/01/03 03:45:29;;;;;;;2.97;1.10;;;;;;;19.20;56.50;101520.00;5010477;28;20435;-64
2023/01/03 03:48:17;;;;;;;2.60;1.20;;;;;;;19.19;56.68;101519.19;4988786;28;20773;-64
2023/01/03 03:50:56;;;;;;;2.83;1.27;;;;;;;19.19;56.69;101515.50;5060160;28;20486;-64
2023/01/03 03:53:24;;;;;;;4.03;1.77;;;;;;;19.20;56.54;101508.56;5070501;28;20458;-64
2023/01/03 03:55:55;;;;;;;3.20;1.50;;;;;;;19.19;56.49;101518.34;5075723;28;20515;-64
2023/01/03 03:58:23;;;;;;;2.60;1.40;;;;;;;19.20;56.64;101520.88;5089562;28;20510;-64
2023/01/03 04:00:50;;;;;;;2.87;1.40;;;;;;;19.21;56.54;101516.81;5112208;28;20457;-64
2023/01/03 04:03:15;;;;;;;2.33;1.13;;;;;;;19.20;56.75;101522.88;5069294;28;20737;-64
2023/01/03 04:05:44;;;;;;;3.00;1.40;;;;;;;19.20;56.49;101525.75;5052338;28;20529;-64
2023/01/03 04:08:10;;;;;;;5.43;1.63;;;;;;;19.19;56.53;101530.66;5074000;28;20233;-64
2023/01/03 04:10:36;;;;;;;2.60;1.40;;;;;;;19.18;56.71;101533.88;5070208;28;20432;-64
2023/01/03 04:13:01;;;;;;;2.20;1.20;;;;;;;19.21;56.80;101533.16;5054209;28;20159;-64
2023/01/03 04:15:26;;;;;;;2.07;1.20;;;;;;;19.21;56.58;101533.97;5074603;28;20194;-64
2023/01/03 04:17:52;;;;;;;2.90;1.37;;;;;;;19.19;56.50;101542.09;5072375;28;20156;-64
2023/01/03 04:20:18;;;;;;;2.97;1.47;;;;;;;19.19;56.51;101538.38;5063012;28;20174;-64
2023/01/03 04:22:43;;;;;;;4.83;1.60;;;;;;;19.19;56.72;101542.09;5107868;28;20252;-64
2023/01/03 04:25:09;;;;;;;2.17;1.10;;;;;;;19.19;56.56;101544.97;5112568;28;20404;-62
2023/01/03 04:27:34;;;;;;;2.50;1.43;;;;;;;19.19;56.41;101533.50;5111657;28;20203;-62
2023/01/03 04:30:00;;;;;;;2.13;1.10;;;;;;;19.18;56.57;101531.84;5088028;28;20699;-62
2023/01/03 04:32:25;;;;;;;2.47;1.30;;;;;;;19.19;56.42;101536.38;5071381;28;20159;-62
2023/01/03 04:34:51;;;;;;;3.00;1.30;;;;;;;19.18;56.27;101543.31;5091774;28;20174;-61
2023/01/03 04:37:16;;;;;;;2.70;1.33;;;;;;;19.18;56.41;101533.88;5083737;28;20227;-62
2023/01/03 04:39:42;;;;;;;1.80;1.13;;;;;;;19.17;56.47;101538.75;5092127;28;20169;-62
2023/01/03 04:44:51;;;;;;;2.70;1.40;;;;;;;19.17;56.77;101541.59;5073964;28;20325;-62
2023/01/03 04:47:16;;;;;;;3.50;1.20;;;;;;;19.18;56.47;101540.44;5070406;28;20971;-62
2023/01/03 04:49:45;;;;;;;3.43;1.40;;;;;;;19.19;56.65;101547.81;5073691;28;20167;-62
2023/01/03 04:52:14;;;;;;;2.27;1.10;;;;;;;19.18;56.31;101542.44;5071549;28;20181;-62
2023/01/03 04:54:40;;;;;;;2.20;1.13;;;;;;;19.20;56.38;101546.63;5073994;28;20515;-62
2023/01/03 04:57:05;;;;;;;2.57;1.30;;;;;;;19.21;56.46;101551.16;5071284;28;20492;-62
2023/01/03 04:59:31;;;;;;;2.47;1.27;;;;;;;19.21;56.46;101550.34;5071559;28;20163;-62
2023/01/03 05:01:56;;;;;;;2.70;1.50;;;;;;;19.19;56.44;101549.84;5071247;28;20178;-62
2023/01/03 05:04:22;;;;;;;2.70;1.40;;;;;;;19.19;56.86;101549.84;5017552;28;20221;-62
2023/01/03 05:06:47;;;;;;;2.00;1.13;;;;;;;19.20;56.40;101548.63;5030679;28;20171;-62
2023/01/03 05:09:13;;;;;;;2.07;1.10;;;;;;;19.18;56.34;101551.88;5088179;28;20210;-62
2023/01/03 05:11:38;;;;;;;2.10;1.20;;;;;;;19.21;56.35;101548.28;5091571;28;20162;-62
2023/01/03 05:14:03;;;;;;;2.30;1.03;;;;;;;19.19;56.17;101553.56;5091380;28;20174;-62
2023/01/03 05:16:29;;;;;;;2.83;1.37;;;;;;;19.18;56.32;101551.03;5074079;28;20193;-62
2023/01/03 05:18:55;;;;;;;3.33;1.50;;;;;;;19.19;56.72;101547.81;5073467;28;20175;-62
2023/01/03 05:26:49;;;;;;;2.43;1.30;;;;;;;19.20;56.42;101563.81;5070086;28;20400;-62
2023/01/03 05:29:16;;;;;;;3.63;1.20;;;;;;;19.18;56.43;101560.47;5070158;28;20461;-62
2023/01/03 05:31:41;;;;;;;3.20;1.07;;;;;;;19.19;56.49;101562.13;5054294;28;20675;-62
2023/01/03 05:34:07;;;;;;;2.30;1.20;;;;;;;19.21;56.51;101573.25;5072775;28;20532;-62
2023/01/03 05:36:32;;;;;;;1.70;0.80;;;;;;;19.21;56.13;101579.78;5085688;28;20703;-62
2023/01/03 05:38:58;;;;;;;2.57;1.33;;;;;;;19.18;56.32;101582.53;5103413;28;20177;-62
2023/01/03 05:44:07;;;;;;;2.53;1.20;;;;;;;19.18;56.37;101574.78;5062263;28;20241;-62
2023/01/03 05:46:33;;;;;;;2.40;0.97;;;;;;;19.20;56.49;101572.41;5070292;28;20401;-62
2023/01/03 05:48:58;;;;;;;2.23;1.17;;;;;;;19.21;56.36;101573.25;5088065;28;20201;-61
2023/01/03 05:51:24;;;;;;;2.00;1.13;;;;;;;19.20;56.44;101574.41;5089800;28;20162;-62
2023/01/03 05:53:49;;;;;;;3.07;1.57;;;;;;;19.21;56.33;101574.06;5084435;28;20190;-62
2023/01/03 05:56:15;;;;;;;3.53;1.10;;;;;;;19.21;56.05;101571.19;5069271;28;20171;-62
2023/01/03 05:58:42;;;;;;;3.20;1.30;;;;;;;19.21;56.26;101581.84;5069188;28;20179;-62
2023/01/03 06:01:10;;;;;;;2.30;0.97;;;;;;;19.23;56.27;101576.59;5072225;28;20425;-62
2023/01/03 06:03:36;;;;;;;2.03;0.90;;;;;;;19.21;56.15;101576.09;5070559;28;20421;-62
2023/01/03 06:06:03;;;;;;;4.67;1.67;;;;;;;19.21;56.18;101579.78;5071492;28;20443;-64
2023/01/03 06:08:28;;;;;;;3.50;1.10;;;;;;;19.23;56.03;101580.31;5072382;28;20191;-64
2023/01/03 06:10:54;;;;;;;2.53;0.90;;;;;;;19.20;55.97;101578.13;5070430;28;20885;-64
2023/01/03 06:13:20;;;;;;;2.27;1.17;;;;;;;19.23;56.23;101585.19;5075191;28;20213;-64
2023/01/03 06:17:53;;;;;;;2.10;1.10;;;;;;;19.22;56.08;101581.50;5073974;28;20157;-64
2023/01/03 06:18:33;;;;;;;2.87;1.27;;;;;;;19.23;56.05;101599.50;5075583;28;21007;-64
2023/01/03 06:20:58;;;;;;;2.60;1.20;;;;;;;19.22;55.91;101587.22;5075353;28;20428;-64
2023/01/03 06:23:24;;;;;;;4.63;1.50;;;;;;;19.24;55.96;101604.03;5074271;28;20410;-64
2023/01/03 06:25:49;;;;;;;2.50;1.30;;;;;;;19.26;55.90;101599.63;5090053;28;20174;-64
2023/01/03 06:28:14;;;;;;;1.80;0.97;;;;;;;19.23;56.05;101599.50;5084057;28;20289;-64
2023/01/03 06:30:41;;;;;;;2.17;0.90;;;;;;;19.24;56.11;101604.03;5094303;28;20651;-64
2023/01/03 06:33:06;;;;;;;2.23;1.20;;;;;;;19.19;56.40;101599.34;5093498;28;20170;-64
2023/01/03 06:35:32;;;;;;;3.30;1.20;;;;;;;19.25;56.19;101602.84;5091156;28;20473;-64
2023/01/03 06:37:57;;;;;;;2.17;1.07;;;;;;;19.22;56.05;101601.53;5094051;28;20170;-64
2023/01/03 06:40:22;;;;;;;2.20;1.10;;;;;;;19.22;56.16;101601.53;5085898;28;20182;-64
2023/01/03 06:42:48;;;;;;;2.30;1.17;;;;;;;19.21;56.10;101608.41;5091080;28;20336;-64
2023/01/03 06:53:26;;;;;;;3.83;1.20;;;;;;;19.24;56.25;101602.03;5090656;28;20529;-64
2023/01/03 06:55:51;;;;;;;2.33;1.20;;;;;;;19.25;56.09;101599.97;5059145;28;20393;-64
2023/01/03 06:58:17;;;;;;;3.70;1.43;;;;;;;19.27;55.96;101603.34;5086288;28;20881;-64
2023/01/03 07:00:42;;;;;;;2.40;1.40;;;;;;;19.24;56.14;101607.75;5073954;28;20179;-64
2023/01/03 07:03:08;;;;;;;2.13;0.97;;;;;;;19.26;56.30;101607.41;5038868;28;20167;-64
2023/01/03 07:05:33;;;;;;;2.87;1.17;;;;;;;19.25;56.03;101603.69;5073558;28;20194;-64
2023/01/03 07:07:58;;;;;;;2.10;1.07;;;;;;;19.24;56.13;101602.03;5078369;28;20206;-64
2023/01/03 07:10:24;;;;;;;2.70;1.40;;;;;;;19.26;55.90;101602.50;5055622;28;20169;-64
2023/01/03 07:15:53;;;;;;;2.63;1.20;;;;;;;19.26;56.19;101613.94;4989787;28;20289;-64
2023/01/03 07:18:18;;;;;;;2.97;1.13;;;;;;;19.23;56.25;101616.69;4971407;28;20433;-64
2023/01/03 07:20:44;;;;;;;2.23;1.20;;;;;;;19.24;56.16;101615.50;5016879;28;20677;-64
2023/01/03 07:23:10;;;;;;;2.23;1.23;;;;;;;19.26;55.95;101611.09;5056547;28;20183;-64
2023/01/03 07:25:39;;;;;;;1.90;1.20;;;;;;;19.24;56.06;101613.47;5069493;28;20196;-64
2023/01/03 07:28:06;;;;;;;1.77;1.00;;;;;;;19.24;56.02;101609.78;5069811;28;20309;-64
2023/01/03 07:30:35;;;;;;;2.40;1.23;;;;;;;19.26;55.99;101624.59;5056265;28;20444;-64
2023/01/03 07:33:01;;;;;;;2.30;1.13;;;;;;;19.29;56.15;101621.84;5073821;28;20463;-64
2023/01/03 07:35:26;;;;;;;2.70;1.20;;;;;;;19.25;56.00;101623.75;5072276;28;20406;-64
2023/01/03 07:37:52;;;;;;;2.90;1.30;;;;;;;19.28;55.86;101627.91;5085788;28;20188;-64
2023/01/03 07:40:17;;;;;;;2.50;1.20;;;;;;;19.28;55.80;101631.63;5097438;28;20184;-64
2023/01/03 07:45:26;;;;;;;2.17;1.03;;;;;;;19.28;56.38;101634.50;5092980;28;20185;-64
2023/01/03 07:47:53;;;;;;;2.43;1.20;;;;;;;19.27;56.06;101647.13;5098210;28;20443;-64
2023/01/03 07:50:18;;;;;;;2.87;1.20;;;;;;;19.25;56.03;101643.78;5113048;28;20165;-64
2023/01/03 07:52:44;;;;;;;2.10;0.90;;;;;;;19.25;56.22;101646.66;5092141;28;20449;-64
2023/01/03 07:55:09;;;;;;;2.20;1.07;;;;;;;19.28;55.97;101642.25;5072426;28;20175;-64
2023/01/03 07:57:35;;;;;;;2.70;1.20;;;;;;;19.27;55.91;101644.25;5074861;28;20237;-64
2023/01/03 08:00:00;;;;;;;2.20;1.10;;;;;;;19.26;55.80;101648.31;5056819;28;20232;-64
2023/01/03 08:02:26;;;;;;;2.73;1.43;;;;;;;19.27;56.00;101646.28;5071685;28;20185;-64
2023/01/03 08:04:51;;;;;;;2.10;1.30;;;;;;;19.28;56.10;101648.81;5070923;28;20256;-64
2023/01/03 08:07:17;;;;;;;3.10;1.27;;;;;;;19.27;56.06;101649.16;5085230;28;20191;-64
2023/01/03 08:15:10;;;;;;;2.20;1.27;;;;;;;19.27;55.83;101649.97;5073217;28;20431;-64
2023/01/03 08:17:36;;;;;;;2.30;1.30;;;;;;;19.27;55.97;101664.28;5071211;28;20413;-64
2023/01/03 08:20:01;;;;;;;2.23;1.10;;;;;;;19.30;55.71;101668.47;5075294;28;20232;-64
2023/01/03 08:22:28;;;;;;;2.63;1.23;;;;;;;19.27;55.89;101675.75;5074263;28;20205;-64
2023/01/03 08:24:53;;;;;;;1.90;1.03;;;;;;;19.29;55.74;101678.25;5071447;28;20175;-64
2023/01/03 08:27:18;;;;;;;2.03;1.17;;;;;;;19.29;55.76;101678.25;5074094;28;20441;-63
2023/01/03 08:29:45;;;;;;;2.17;1.20;;;;;;;19.29;55.85;101679.13;5071816;28;20183;-64
2023/01/03 08:32:11;;;;;;;2.17;1.20;;;;;;;19.26;56.07;101685.53;5071887;28;20186;-64
2023/01/03 08:34:36;;;;;;;2.60;1.27;;;;;;;19.29;55.72;101690.56;5084062;28;20412;-64
2023/01/03 08:37:06;;;;;;;2.27;1.20;;;;;;;19.28;55.70;101688.91;5098167;28;20661;-64
2023/01/03 08:39:36;;;;;;;2.23;0.90;;;;;;;19.31;55.82;101691.03;5094139;28;20256;-64
2023/01/03 08:42:03;;;;;;;3.10;1.40;;;;;;;19.30;55.88;101697.97;5079948;28;20836;-64
2023/01/03 08:44:29;;;;;;;2.40;1.20;;;;;;;19.28;55.97;101702.38;5053698;28;20421;-64
2023/01/03 08:46:54;;;;;;;2.50;1.40;;;;;;;19.32;55.77;101706.22;5071609;28;20417;-64
2023/01/03 08:49:20;;;;;;;1.97;1.43;;;;;;;19.31;55.93;101704.53;5086662;28;20202;-64
2023/01/03 08:51:45;;;;;;;2.13;1.00;;;;;;;19.31;55.66;101701.69;5091661;28;20163;-64
2023/01/03 08:54:11;;;;;;;2.43;1.17;;;;;;;19.31;55.68;101698.81;5087646;28;20236;-64
2023/01/03 08:56:36;;;;;;;1.80;1.10;;;;;;;19.30;55.58;101697.97;5091528;28;20219;-63
2023/01/03 08:59:01;;;;;;;1.70;0.87;;;;;;;19.29;55.79;101695.44;5072887;28;20669;-64
2023/01/03 09:01:27;;;;;;;2.33;1.10;;;;;;;19.28;56.04;101690.91;5087669;28;20190;-63
2023/01/03 09:03:52;;;;;;;3.13;1.33;;;;;;;19.31;55.66;101695.94;5081972;28;20175;-64
2023/01/03 09:06:18;;;;;;;2.03;1.00;;;;;;;19.31;55.54;101704.53;5078054;28;20182;-63
2023/01/03 09:08:43;;;;;;;3.20;1.37;;;;;;;19.32;55.66;101709.88;5073165;28;20195;-64
2023/01/03 09:11:09;;;;;;;1.90;1.00;;;;;;;19.30;55.93;101703.69;5091551;28;20155;-64
2023/01/03 09:13:34;;;;;;;2.30;1.30;;;;;;;19.30;55.65;101706.56;5055772;28;20819;-64
2023/01/03 09:16:11;;;;;;;2.10;1.10;;;;;;;19.28;55.75;101710.97;5052982;28;20186;-63
2023/01/03 09:18:36;;;;;;;2.53;1.20;;;;;;;19.29;55.81;101707.75;5070630;28;20598;-64
2023/01/03 09:21:02;;;;;;;2.30;1.30;;;;;;;19.27;56.06;101710.09;5073632;28;20425;-63
2023/01/03 09:23:28;;;;;;;1.87;1.10;;;;;;;19.31;55.68;101713.13;5071082;28;20185;-64
2023/01/03 09:25:54;;;;;;;4.33;1.20;;;;;;;19.30;55.45;101718.00;5071108;28;20210;-63
2023/01/03 09:28:22;;;;;;;2.10;1.00;;;;;;;19.30;55.69;101723.72;5073396;28;20493;-64
2023/01/03 09:30:47;;;;;;;1.97;1.03;;;;;;;19.29;55.70;101724.94;5079089;28;20187;-64
2023/01/03 09:33:13;;;;;;;2.20;0.90;;;;;;;19.29;55.78;101724.94;5083222;28;20433;-64
2023/01/03 09:35:38;;;;;;;2.30;1.33;;;;;;;19.29;56.01;101721.22;5070706;28;20163;-64
2023/01/03 09:38:08;;;;;;;2.87;1.40;;;;;;;19.29;55.80;101722.06;5089697;28;20186;-64
2023/01/03 09:40:44;;;;;;;3.03;1.30;;;;;;;19.32;55.82;101729.94;5087169;28;20243;-64
2023/01/03 09:43:19;;;;;;;1.67;1.00;;;;;;;19.28;55.76;101734.72;5073119;28;20467;-63
2023/01/03 09:45:58;;;;;;;2.60;1.13;;;;;;;19.31;55.67;101738.91;5072855;28;20408;-64
2023/01/03 09:48:37;;;;;;;2.10;0.90;;;;;;;19.32;55.69;101735.66;5094231;28;20498;-63
2023/01/03 10:03:41;;;;;;;2.00;0.90;;;;;;;19.28;55.75;101734.72;5096639;28;20407;-64
2023/01/03 10:05:39;;;;;;;2.80;1.70;;;;;;;19.34;55.84;101735.31;5077095;28;20480;-63
2023/01/03 10:08:26;;;;;;;2.23;1.30;;;;;;;19.35;55.73;101729.25;5092960;28;20479;-61
2023/01/03 10:11:09;;;;;;;1.90;1.10;;;;;;;19.34;55.81;101732.44;5072029;28;20432;-64
2023/01/03 10:13:43;;;;;;;1.80;1.10;;;;;;;19.35;55.62;101726.38;5082796;28;20416;-64
2023/01/03 10:16:12;;;;;;;2.00;1.10;;;;;;;19.37;55.73;101728.91;5093974;28;20393;-62
2023/01/03 10:18:52;;;;;;;2.80;1.33;;;;;;;19.37;55.88;101726.84;5076576;28;20470;-62
2023/01/03 10:21:38;;;;;;;2.50;1.40;;;;;;;19.40;55.63;101720.44;5074304;28;21229;-64
2023/01/03 10:24:27;;;;;;;2.47;1.20;;;;;;;19.44;55.40;101732.00;5075251;28;20490;-63
2023/01/03 10:27:02;;;;;;;2.37;1.20;;;;;;;19.41;55.70;101738.47;5074108;28;20409;-64
2023/01/03 10:29:28;;;;;;;3.17;1.60;;;;;;;19.39;55.53;101735.94;5059114;28;20476;-63
2023/01/03 10:32:18;;;;;;;2.80;1.57;;;;;;;19.36;55.32;101732.97;5077830;28;20445;-63
2023/01/03 10:34:43;;;;;;;2.40;1.33;;;;;;;19.38;55.49;101721.97;5088114;28;20202;-63
2023/01/03 10:37:18;;;;;;;3.10;1.77;;;;;;;19.36;55.50;101733.78;5093187;28;20435;-63
2023/01/03 10:39:43;;;;;;;2.67;1.40;;;;;;;19.36;55.51;101733.78;5093162;28;20158;-63
2023/01/03 10:42:15;;;;;;;1.70;0.90;;;;;;;19.40;55.40;101726.16;5075163;28;20907;-63
2023/01/03 10:44:41;;;;;;;2.50;1.37;;;;;;;19.41;54.84;101721.28;5049283;28;20179;-63
2023/01/03 10:47:12;;;;;;;3.10;1.40;;;;;;;19.40;55.40;101714.69;5037734;28;20444;-63
2023/01/03 10:49:38;;;;;;;2.40;1.20;;;;;;;19.39;55.48;101721.63;5040022;28;20502;-63
2023/01/03 10:52:16;;;;;;;2.00;1.20;;;;;;;19.39;55.35;101707.31;5039039;28;20433;-63
2023/01/03 10:55:14;;;;;;;2.33;1.30;;;;;;;19.42;55.33;101717.22;5055915;28;20436;-63
2023/01/03 10:57:47;;;;;;;2.67;1.40;;;;;;;19.38;55.69;101707.66;5029586;28;20437;-63
2023/01/03 11:00:31;;;;;;;2.00;1.40;;;;;;;19.39;55.45;101704.44;5080185;28;20446;-62
2023/01/03 11:03:08;;;;;;;3.30;1.70;;;;;;;19.40;55.57;101706.13;5091592;28;20416;-62
2023/01/03 11:05:34;;;;;;;2.33;1.20;;;;;;;19.39;55.75;101706.47;5073463;28;20558;-62
2023/01/03 11:08:02;;;;;;;2.00;1.10;;;;;;;19.42;55.53;101712.31;5073672;28;20551;-62
2023/01/03 11:10:38;;;;;;;1.93;0.90;;;;;;;19.42;55.62;101708.63;5076784;28;20743;-62
2023/01/03 11:13:33;;;;;;;2.27;1.13;;;;;;;19.39;55.50;101700.72;5055657;28;20445;-62
2023/01/03 11:16:00;;;;;;;2.20;1.40;;;;;;;19.37;55.80;101706.81;5076252;28;20983;-63
2023/01/03 11:18:26;;;;;;;1.90;1.10;;;;;;;19.42;55.56;101705.75;5073071;28;20492;-63
2023/01/03 11:21:22;;;;;;;2.07;1.33;;;;;;;19.41;55.65;101704.91;5072037;28;20420;-64
2023/01/03 11:24:00;;;;;;;2.13;1.23;;;;;;;19.42;55.43;101706.59;5069199;28;20218;-63
2023/01/03 11:26:53;;;;;;;3.53;1.33;;;;;;;19.40;55.62;101697.53;5071291;28;20405;-63
2023/01/03 11:29:43;;;;;;;2.10;1.13;;;;;;;19.41;55.70;101693.47;5074634;28;20560;-63
2023/01/03 11:32:44;;;;;;;1.93;1.07;;;;;;;19.39;55.63;101692.13;5054531;28;20766;-64
2023/01/03 11:35:18;;;;;;;1.90;1.10;;;;;;;19.38;55.65;101688.47;5072629;28;20455;-63
2023/01/03 11:37:55;;;;;;;2.07;1.10;;;;;;;19.34;55.99;101687.47;5091897;28;21417;-62
2023/01/03 11:40:39;;;;;;;2.17;1.43;;;;;;;19.30;55.85;101692.25;5083486;28;20584;-62
2023/01/03 11:43:10;;;;;;;3.33;2.07;;;;;;;19.33;54.66;101684.97;5072759;28;20904;-62
2023/01/03 11:45:44;;;;;;;4.90;2.10;;;;;;;19.31;55.03;101684.50;5073881;28;20742;-62
2023/01/03 11:48:13;;;;;;;3.03;1.90;;;;;;;19.31;54.92;101682.44;5039192;28;20456;-62
2023/01/03 11:51:08;;;;;;;5.33;2.30;;;;;;;19.33;54.19;101682.09;5092909;28;20443;-62
2023/01/03 11:53:35;;;;;;;5.03;2.23;;;;;;;19.31;54.07;101682.44;5089159;28;20858;-63
2023/01/03 11:56:28;;;;;;;3.70;2.20;;;;;;;19.32;53.89;101680.44;5083013;28;20436;-63
2023/01/03 11:59:26;;;;;;;3.70;1.60;;;;;;;19.30;53.88;101674.19;5100908;28;20423;-62
2023/01/03 12:02:21;;;;;;;4.03;2.50;;;;;;;19.28;53.78;101671.72;5092852;28;20439;-62
2023/01/03 12:05:06;;;;;;;8.93;2.70;;;;;;;19.29;53.52;101673.38;5068553;28;20892;-63
2023/01/03 12:07:47;;;;;;;4.30;2.20;;;;;;;19.30;53.81;101671.34;5073157;28;20903;-63
2023/01/03 12:10:14;;;;;;;5.23;2.17;;;;;;;19.29;53.98;101679.13;5085349;28;21134;-63
2023/01/03 12:13:04;;;;;;;5.70;2.13;;;;;;;19.29;53.79;101676.25;5091940;28;20420;-63
2023/01/03 12:15:38;;;;;;;3.57;1.83;;;;;;;19.27;53.53;101675.75;5089456;28;20433;-62
2023/01/03 12:18:33;;;;;;;6.80;1.90;;;;;;;19.26;53.52;101670.41;5054656;28;20443;-63
2023/01/03 12:21:05;;;;;;;6.57;2.00;;;;;;;19.27;53.67;101672.06;5076087;28;20428;-63
2023/01/03 12:23:40;;;;;;;5.50;2.23;;;;;;;19.28;53.70;101670.88;5075044;28;20484;-61
2023/01/03 12:26:08;;;;;;;6.63;2.50;;;;;;;19.25;53.75;101672.41;5091233;28;20444;-61
2023/01/03 12:28:38;;;;;;;3.90;1.90;;;;;;;19.24;53.61;101665.03;5063240;28;20952;-61
2023/01/03 12:31:10;;;;;;;6.63;2.50;;;;;;;19.25;53.81;101660.97;5070337;28;20439;-61
2023/01/03 12:33:41;;;;;;;5.10;2.27;;;;;;;19.23;53.74;101660.50;5088406;28;20513;-61
2023/01/03 12:36:28;;;;;;;5.23;2.33;;;;;;;19.26;53.63;101656.09;5060475;28;20802;-62
2023/01/03 12:39:32;;;;;;;4.23;2.07;;;;;;;19.23;53.88;101654.75;5091547;28;20503;-62
2023/01/03 12:42:00;;;;;;;4.33;1.80;;;;;;;19.26;53.69;101658.94;5098139;28;20855;-62